Time;durP1;ratioP1;P1;durP2;ratioP2;P2;SDS_P1;SDS_P2;PMS_P1;PMS_P2;Temp;Humidity;BMP_temperature;BMP_pressure;BME280_temperature;BME280_humidity;BME280_pressure;Samples;Min_cycle;Max_cycle;Signal;HPM_P1;HPM_P2
2022/05/20 00:01:46;;;;;;;;;;;;;;;6.73;68.93;99034.69;5051103;28;19925;-60
2022/05/20 00:04:12;;;;;;;;;;;;;;;6.67;69.75;99035.59;5049784;28;19925;-62
2022/05/20 00:06:37;;;;;;;;;;;;;;;6.61;69.22;99034.63;5033276;28;19972;-60
2022/05/20 00:09:03;;;;;;;;;;;;;;;6.60;69.05;99043.56;5051675;28;19928;-61
2022/05/20 00:11:28;;;;;;;;;;;;;;;6.55;68.32;99049.47;5051343;28;19932;-62
2022/05/20 00:13:54;;;;;;;;;;;;;;;6.48;67.90;99055.84;5049670;28;19933;-61
2022/05/20 00:16:19;;;;;;;;;;;;;;;6.43;67.94;99051.22;5051100;28;19936;-62
2022/05/20 00:18:46;;;;;;;;;;;;;;;6.38;66.53;99051.06;5051183;28;20318;-62
2022/05/20 00:21:12;;;;;;;;;;;;;;;6.29;66.56;99055.81;5051187;28;19925;-63
2022/05/20 00:23:37;;;;;;;;;;;;;;;6.20;66.76;99051.06;5049433;28;19951;-62
2022/05/20 00:26:03;;;;;;;;;;;;;;;6.13;65.65;99064.28;5051552;28;19924;-62
2022/05/20 00:28:28;;;;;;;;;;;;;;;6.07;63.88;99068.59;5050404;28;19929;-61
2022/05/20 00:30:55;;;;;;;;;;;;;;;6.05;63.38;99077.72;5051473;28;19928;-63
2022/05/20 00:33:21;;;;;;;;;;;;;;;6.06;62.88;99079.31;5050778;28;19928;-62
2022/05/20 00:35:47;;;;;;;;;;;;;;;6.04;63.62;99071.63;5050553;28;20304;-61
2022/05/20 00:38:13;;;;;;;;;;;;;;;6.01;62.66;99077.34;5051023;28;20023;-60
2022/05/20 00:40:38;;;;;;;;;;;;;;;6.00;61.56;99086.25;5050984;28;19931;-63
2022/05/20 00:43:14;;;;;;;;;;;;;;;6.05;59.75;99081.13;5050515;28;20349;-61
2022/05/20 00:45:41;;;;;;;;;;;;;;;6.08;60.02;99085.16;5020065;28;19933;-61
2022/05/20 00:48:07;;;;;;;;;;;;;;;6.06;59.82;99088.03;5054394;28;20400;-62
2022/05/20 00:50:33;;;;;;;;;;;;;;;6.07;60.00;99091.47;5054697;28;20008;-62
2022/05/20 00:52:58;;;;;;;;;;;;;;;6.06;59.27;99088.03;5053921;28;20333;-62
2022/05/20 00:55:24;;;;;;;;;;;;;;;6.02;59.18;99088.66;5054862;28;19933;-62
2022/05/20 00:57:54;;;;;;;;;;;;;;;6.09;59.42;99100.75;5053132;28;19925;-63
2022/05/20 01:00:22;;;;;;;;;;;;;;;6.07;59.61;99102.00;5054400;28;19999;-62
2022/05/20 01:02:48;;;;;;;;;;;;;;;6.05;59.83;99102.19;5038382;28;19924;-61
2022/05/20 01:05:21;;;;;;;;;;;;;;;6.04;60.27;99105.84;5052784;28;19975;-61
2022/05/20 01:07:47;;;;;;;;;;;;;;;6.05;59.59;99110.09;5052694;28;20279;-62
2022/05/20 01:10:13;;;;;;;;;;;;;;;6.00;60.53;99104.69;5054743;28;20020;-61
2022/05/20 01:12:38;;;;;;;;;;;;;;;6.03;59.99;99116.56;5052581;28;19963;-61
2022/05/20 01:15:04;;;;;;;;;;;;;;;6.02;60.09;99121.03;5054140;28;19932;-62
2022/05/20 01:17:30;;;;;;;;;;;;;;;6.14;60.28;99123.78;5052164;28;19929;-61
2022/05/20 01:19:55;;;;;;;;;;;;;;;6.31;59.62;99118.78;5053126;28;19987;-61
2022/05/20 01:22:35;;;;;;;;;;;;;;;6.31;59.93;99116.16;5052566;28;19925;-61
2022/05/20 01:25:01;;;;;;;;;;;;;;;6.20;59.47;99125.56;5052245;28;19979;-63
2022/05/20 01:27:28;;;;;;;;;;;;;;;6.21;60.43;99127.19;5053781;28;19925;-62
2022/05/20 01:29:53;;;;;;;;;;;;;;;6.19;60.69;99128.41;5052563;28;19940;-62
2022/05/20 01:32:19;;;;;;;;;;;;;;;6.18;60.19;99137.31;5052222;28;19936;-61
2022/05/20 01:34:45;;;;;;;;;;;;;;;6.15;60.76;99130.69;5053388;28;19932;-62
2022/05/20 01:37:11;;;;;;;;;;;;;;;6.10;61.03;99133.94;5053674;28;19924;-61
2022/05/20 01:39:37;;;;;;;;;;;;;;;6.13;61.35;99140.59;5052244;28;19928;-61
2022/05/20 01:42:04;;;;;;;;;;;;;;;6.15;61.27;99135.94;5053240;28;19932;-61
2022/05/20 01:44:48;;;;;;;;;;;;;;;6.16;61.45;99139.38;5053777;28;19929;-62
2022/05/20 01:47:24;;;;;;;;;;;;;;;6.13;60.90;99151.13;5053119;28;19929;-62
2022/05/20 01:50:08;;;;;;;;;;;;;;;6.16;61.85;99145.44;5053687;28;19932;-62
2022/05/20 01:52:38;;;;;;;;;;;;;;;6.12;61.92;99146.91;5051881;28;19928;-63
2022/05/20 01:55:13;;;;;;;;;;;;;;;6.16;61.26;99150.69;5020544;28;19929;-61
2022/05/20 01:57:43;;;;;;;;;;;;;;;6.17;59.33;99147.03;5036786;28;19924;-59
2022/05/20 02:00:13;;;;;;;;;;;;;;;6.15;59.47;99154.38;5052295;28;19929;-60
2022/05/20 02:02:59;;;;;;;;;;;;;;;6.18;58.70;99159.19;5051740;28;19986;-62
2022/05/20 02:05:32;;;;;;;;;;;;;;;6.29;58.52;99158.47;5031911;28;19956;-61
2022/05/20 02:07:59;;;;;;;;;;;;;;;6.36;58.42;99153.97;5051588;28;19929;-61
2022/05/20 02:10:30;;;;;;;;;;;;;;;6.24;58.69;99157.53;5051599;28;19932;-62
2022/05/20 02:12:57;;;;;;;;;;;;;;;6.28;57.46;99158.72;5052926;28;19932;-62
2022/05/20 02:15:23;;;;;;;;;;;;;;;6.29;57.76;99162.94;5034528;28;19989;-61
2022/05/20 02:17:51;;;;;;;;;;;;;;;6.74;56.49;99176.75;5052982;28;19925;-62
2022/05/20 02:20:22;;;;;;;;;;;;;;;7.41;54.15;99176.00;5053061;28;19929;-62
2022/05/20 02:22:55;;;;;;;;;;;;;;;7.96;52.11;99167.97;5052572;28;19932;-61
2022/05/20 02:25:22;;;;;;;;;;;;;;;8.54;51.56;99177.88;5053292;28;20413;-61
2022/05/20 02:27:49;;;;;;;;;;;;;;;9.08;49.40;99177.72;5051072;28;19925;-62
2022/05/20 02:30:15;;;;;;;;;;;;;;;9.31;48.74;99177.66;5035147;28;19955;-62
2022/05/20 02:32:46;;;;;;;;;;;;;;;9.64;47.43;99170.88;5051214;28;19928;-62
2022/05/20 02:35:11;;;;;;;;;;;;;;;9.87;47.08;99171.84;5051340;28;20463;-62
2022/05/20 02:37:38;;;;;;;;;;;;;;;10.02;46.45;99170.25;5050704;28;19984;-61
2022/05/20 02:40:04;;;;;;;;;;;;;;;10.22;46.40;99171.63;5052097;28;19928;-62
2022/05/20 02:42:30;;;;;;;;;;;;;;;10.53;45.21;99175.63;5052262;28;19924;-61
2022/05/20 02:44:59;;;;;;;;;;;;;;;10.81;44.35;99172.03;5052421;28;19928;-60
2022/05/20 02:47:24;;;;;;;;;;;;;;;10.91;43.62;99187.28;5051633;28;19940;-61
2022/05/20 02:49:50;;;;;;;;;;;;;;;11.08;43.51;99190.69;5051882;28;19929;-61
2022/05/20 02:52:15;;;;;;;;;;;;;;;11.05;43.67;99187.75;5034324;28;20293;-62
2022/05/20 02:54:41;;;;;;;;;;;;;;;11.18;43.45;99194.53;5051889;28;19951;-61
2022/05/20 02:57:06;;;;;;;;;;;;;;;11.33;42.36;99216.78;5052164;28;19924;-61
2022/05/20 03:05:00;;;;;;;;;;;;;;;11.09;42.81;99199.47;5050864;28;20024;-62
2022/05/20 03:07:25;;;;;;;;;;;;;;;11.41;42.00;99212.06;5051583;28;20023;-60
2022/05/20 03:09:54;;;;;;;;;;;;;;;11.46;41.61;99206.81;5051585;28;19951;-62
2022/05/20 03:12:19;;;;;;;;;;;;;;;11.35;41.50;99213.84;5051764;28;19960;-61
2022/05/20 03:14:45;;;;;;;;;;;;;;;11.51;41.71;99212.22;5051976;28;20007;-61
2022/05/20 03:17:10;;;;;;;;;;;;;;;11.66;41.38;99208.94;5051728;28;19994;-60
2022/05/20 03:19:36;;;;;;;;;;;;;;;11.41;40.59;99225.34;5051927;28;19974;-62
2022/05/20 03:22:03;;;;;;;;;;;;;;;11.33;40.67;99221.28;5051672;28;19925;-62
2022/05/20 03:24:29;;;;;;;;;;;;;;;11.23;40.85;99221.13;5050326;28;19941;-60
2022/05/20 03:26:54;;;;;;;;;;;;;;;11.23;41.61;99231.75;5049927;28;19956;-62
2022/05/20 03:29:20;;;;;;;;;;;;;;;11.09;41.71;99221.50;5051268;28;19939;-62
2022/05/20 03:31:46;;;;;;;;;;;;;;;11.23;41.53;99221.13;5051063;28;20424;-61
2022/05/20 03:34:12;;;;;;;;;;;;;;;11.36;41.15;99239.38;5051272;28;19958;-62
2022/05/20 03:36:39;;;;;;;;;;;;;;;11.46;41.50;99234.16;5030487;28;20354;-60
2022/05/20 03:39:05;;;;;;;;;;;;;;;11.40;41.11;99243.13;5048150;28;19955;-61
2022/05/20 03:41:31;;;;;;;;;;;;;;;11.25;41.77;99242.94;5046318;28;19936;-61
2022/05/20 03:43:56;;;;;;;;;;;;;;;10.90;42.32;99246.66;5050037;28;19928;-61
2022/05/20 03:46:22;;;;;;;;;;;;;;;11.16;40.93;99253.16;5050998;28;20039;-61
2022/05/20 03:48:47;;;;;;;;;;;;;;;11.29;41.29;99252.78;5051193;28;19929;-60
2022/05/20 03:51:13;;;;;;;;;;;;;;;11.52;40.97;99250.97;5050133;28;19932;-60
2022/05/20 03:53:39;;;;;;;;;;;;;;;11.66;41.36;99267.34;5051149;28;19979;-62
2022/05/20 03:56:05;;;;;;;;;;;;;;;11.75;40.96;99261.34;5050012;28;19983;-60
2022/05/20 03:58:30;;;;;;;;;;;;;;;11.64;39.97;99269.44;5051233;28;19931;-63
2022/05/20 04:03:40;;;;;;;;;;;;;;;10.83;41.65;99272.56;5051557;28;19928;-61
2022/05/20 04:06:06;;;;;;;;;;;;;;;11.07;42.34;99263.38;5050118;28;19925;-62
2022/05/20 04:08:31;;;;;;;;;;;;;;;11.39;41.18;99265.41;5051203;28;20439;-60
2022/05/20 04:10:57;;;;;;;;;;;;;;;11.53;41.33;99273.78;5049961;28;20440;-61
2022/05/20 04:13:22;;;;;;;;;;;;;;;11.36;41.13;99279.16;5050675;28;19928;-60
2022/05/20 04:15:48;;;;;;;;;;;;;;;10.85;42.66;99267.81;5051208;28;19947;-62
2022/05/20 04:18:14;;;;;;;;;;;;;;;11.12;42.24;99271.41;5051194;28;20070;-61
2022/05/20 04:20:40;;;;;;;;;;;;;;;11.47;41.15;99272.97;5053648;28;20404;-61
2022/05/20 04:23:05;;;;;;;;;;;;;;;11.69;40.56;99277.47;5053213;28;19925;-61
2022/05/20 04:25:31;;;;;;;;;;;;;;;11.83;40.49;99284.81;5033525;28;19925;-62
2022/05/20 04:27:56;;;;;;;;;;;;;;;11.81;40.56;99286.91;5048545;28;20398;-61
2022/05/20 04:30:22;;;;;;;;;;;;;;;11.78;40.31;99291.91;5038928;28;20472;-62
2022/05/20 04:32:47;;;;;;;;;;;;;;;11.79;40.61;99289.03;5052086;28;19925;-62
2022/05/20 04:35:13;;;;;;;;;;;;;;;12.02;40.11;99298.59;5055242;28;19928;-62
2022/05/20 04:37:38;;;;;;;;;;;;;;;11.94;40.03;99295.56;5054285;28;20379;-62
2022/05/20 04:40:04;;;;;;;;;;;;;;;12.08;39.96;99290.69;5054680;28;19936;-61
2022/05/20 04:48:00;;;;;;;;;;;;;;;12.71;38.93;99283.84;5053154;28;19978;-62
2022/05/20 04:50:25;;;;;;;;;;;;;;;12.71;39.05;99292.63;5053237;28;19929;-61
2022/05/20 04:52:51;;;;;;;;;;;;;;;12.73;38.09;99287.03;5053889;28;19947;-60
2022/05/20 04:55:16;;;;;;;;;;;;;;;12.62;37.35;99275.53;5053221;28;19929;-62
2022/05/20 04:57:46;;;;;;;;;;;;;;;11.93;39.46;99265.56;5053118;28;19978;-61
2022/05/20 05:00:14;;;;;;;;;;;;;;;11.77;40.67;99274.38;5054735;28;20023;-62
2022/05/20 05:02:40;;;;;;;;;;;;;;;11.65;40.17;99271.03;5056683;28;20044;-61
2022/05/20 05:05:06;;;;;;;;;;;;;;;11.44;39.88;99283.22;5053096;28;20446;-62
2022/05/20 05:07:35;;;;;;;;;;;;;;;11.10;39.29;99297.38;5036145;28;20365;-61
2022/05/20 05:10:01;;;;;;;;;;;;;;;10.95;39.15;99294.50;5054499;28;19929;-63
2022/05/20 05:12:26;;;;;;;;;;;;;;;10.81;40.18;99301.97;5054066;28;20334;-65
2022/05/20 05:14:52;;;;;;;;;;;;;;;10.67;39.75;99298.81;5054530;28;19936;-61
2022/05/20 05:18:09;;;;;;;;;;;;;;;10.39;40.00;99296.22;5036560;28;20341;-65
2022/05/20 05:20:08;;;;;;;;;;;;;;;10.15;40.45;99292.84;5054226;28;19955;-62
2022/05/20 05:22:34;;;;;;;;;;;;;;;10.15;41.40;99283.06;5053061;28;19929;-62
2022/05/20 05:24:59;;;;;;;;;;;;;;;10.15;41.25;99296.28;5064433;28;20089;-65
2022/05/20 05:27:25;;;;;;;;;;;;;;;10.13;39.58;99311.59;5072623;28;19924;-64
2022/05/20 05:29:50;;;;;;;;;;;;;;;9.86;39.60;99290.19;5065910;28;20382;-62
2022/05/20 05:32:16;;;;;;;;;;;;;;;9.71;40.61;99308.41;5052348;28;19964;-61
2022/05/20 05:34:42;;;;;;;;;;;;;;;9.44;40.03;99300.13;5051042;28;19928;-61
2022/05/20 05:37:07;;;;;;;;;;;;;;;9.17;39.47;99305.09;5050884;28;19925;-61
2022/05/20 05:39:33;;;;;;;;;;;;;;;9.20;38.95;99312.56;5053079;28;19928;-60
2022/05/20 05:42:00;;;;;;;;;;;;;;;8.72;38.33;99306.44;5053034;28;19978;-61
2022/05/20 05:44:25;;;;;;;;;;;;;;;8.80;39.42;99313.25;5051789;28;20353;-62
2022/05/20 05:46:51;;;;;;;;;;;;;;;8.76;41.20;99302.28;5049946;28;19979;-61
2022/05/20 05:49:16;;;;;;;;;;;;;;;8.60;39.81;99321.47;5050748;28;19980;-61
2022/05/20 05:51:42;;;;;;;;;;;;;;;8.70;39.24;99313.78;5051628;28;20020;-62
2022/05/20 05:54:07;;;;;;;;;;;;;;;8.83;39.63;99329.44;5051186;28;20447;-62
2022/05/20 05:56:33;;;;;;;;;;;;;;;8.76;39.80;99320.78;5052669;28;20416;-61
2022/05/20 05:58:59;;;;;;;;;;;;;;;8.69;40.04;99325.38;5050305;28;19924;-62
2022/05/20 06:01:24;;;;;;;;;;;;;;;8.71;40.45;99328.63;5051808;28;19928;-64
2022/05/20 06:03:50;;;;;;;;;;;;;;;8.73;39.52;99318.59;5049236;28;19929;-60
2022/05/20 06:06:15;;;;;;;;;;;;;;;8.91;40.01;99320.34;5050216;28;19924;-61
2022/05/20 06:08:40;;;;;;;;;;;;;;;8.95;39.39;99318.09;5050822;28;20309;-61
2022/05/20 06:11:06;;;;;;;;;;;;;;;9.02;38.92;99316.94;5049156;28;19928;-61
2022/05/20 06:13:32;;;;;;;;;;;;;;;9.12;39.12;99331.41;5050594;28;20019;-61
2022/05/20 06:15:58;;;;;;;;;;;;;;;9.09;39.05;99332.72;5049984;28;20494;-61
2022/05/20 06:18:24;;;;;;;;;;;;;;;9.00;38.30;99319.03;5049933;28;19928;-60
2022/05/20 06:20:50;;;;;;;;;;;;;;;8.87;39.18;99317.38;5051220;28;19978;-62
2022/05/20 06:23:16;;;;;;;;;;;;;;;8.83;39.02;99326.81;5052166;28;20026;-61
2022/05/20 06:25:41;;;;;;;;;;;;;;;8.65;39.42;99334.81;5051960;28;19925;-61
2022/05/20 06:28:08;;;;;;;;;;;;;;;8.61;39.37;99317.78;5051846;28;19978;-61
2022/05/20 06:30:34;;;;;;;;;;;;;;;8.71;39.19;99312.75;5051405;28;19932;-62
2022/05/20 06:33:00;;;;;;;;;;;;;;;8.73;38.65;99338.94;5050201;28;19924;-62
2022/05/20 06:40:55;;;;;;;;;;;;;;;8.72;39.38;99324.13;5049737;28;19935;-62
2022/05/20 06:43:21;;;;;;;;;;;;;;;8.79;39.44;99325.63;5050032;28;19987;-61
2022/05/20 06:45:47;;;;;;;;;;;;;;;8.73;38.22;99317.81;5048894;28;19925;-60
2022/05/20 06:48:13;;;;;;;;;;;;;;;8.83;37.90;99312.78;5048940;28;19924;-61
2022/05/20 06:50:39;;;;;;;;;;;;;;;8.86;39.58;99333.47;5050678;28;19932;-63
2022/05/20 06:53:05;;;;;;;;;;;;;;;8.93;37.38;99326.22;5050575;28;19929;-63
2022/05/20 06:55:31;;;;;;;;;;;;;;;9.05;37.28;99316.47;5050467;28;20308;-58
2022/05/20 06:57:56;;;;;;;;;;;;;;;9.16;38.71;99329.94;5049247;28;20066;-61
2022/05/20 07:00:22;;;;;;;;;;;;;;;9.16;38.14;99319.38;5050579;28;19929;-62
2022/05/20 07:02:47;;;;;;;;;;;;;;;9.18;38.43;99330.53;5050739;28;20417;-61
2022/05/20 07:05:13;;;;;;;;;;;;;;;9.20;37.79;99326.59;5050707;28;20003;-61
2022/05/20 07:07:38;;;;;;;;;;;;;;;9.33;36.99;99331.66;5047481;28;19990;-62
2022/05/20 07:10:05;;;;;;;;;;;;;;;9.25;37.11;99320.63;5049746;28;19932;-61
2022/05/20 07:12:31;;;;;;;;;;;;;;;9.49;37.67;99313.47;5048567;28;19932;-60
2022/05/20 07:14:56;;;;;;;;;;;;;;;9.62;37.08;99329.13;5049570;28;20317;-61
2022/05/20 07:17:22;;;;;;;;;;;;;;;9.42;36.30;99320.75;5050318;28;19932;-60
2022/05/20 07:19:50;;;;;;;;;;;;;;;9.44;36.68;99322.13;5050254;28;19928;-62
2022/05/20 07:22:15;;;;;;;;;;;;;;;9.41;38.75;99319.13;5063455;28;19981;-59
2022/05/20 07:24:43;;;;;;;;;;;;;;;9.58;35.58;99313.94;5069103;28;20027;-61
2022/05/20 07:27:08;;;;;;;;;;;;;;;9.67;35.49;99329.22;5043938;28;19925;-61
2022/05/20 07:29:34;;;;;;;;;;;;;;;9.67;36.22;99334.50;5032711;28;19933;-61
2022/05/20 07:31:59;;;;;;;;;;;;;;;9.63;34.86;99324.63;5050405;28;19925;-62
2022/05/20 07:34:25;;;;;;;;;;;;;;;9.61;34.18;99329.34;5050625;28;20073;-60
2022/05/20 07:36:51;;;;;;;;;;;;;;;9.63;35.46;99333.38;5051187;28;19925;-61
2022/05/20 07:39:16;;;;;;;;;;;;;;;9.82;34.72;99341.97;5047809;28;19932;-62
2022/05/20 07:41:42;;;;;;;;;;;;;;;9.97;33.20;99333.53;5050010;28;19925;-62
2022/05/20 07:44:07;;;;;;;;;;;;;;;9.87;34.28;99350.03;5051168;28;20476;-62
2022/05/20 07:46:33;;;;;;;;;;;;;;;9.74;34.67;99352.94;5050002;28;19924;-62
2022/05/20 07:48:58;;;;;;;;;;;;;;;9.83;34.17;99329.56;5049040;28;20362;-62
2022/05/20 07:51:24;;;;;;;;;;;;;;;9.93;33.81;99345.63;5050381;28;20230;-62
2022/05/20 07:53:51;;;;;;;;;;;;;;;10.00;33.38;99339.19;5048739;28;19982;-62
2022/05/20 07:56:32;;;;;;;;;;;;;;;9.96;34.29;99348.63;5053745;28;19970;-63
2022/05/20 07:59:33;;;;;;;;;;;;;;;10.07;34.58;99349.63;5055048;28;19928;-60
2022/05/20 08:01:59;;;;;;;;;;;;;;;10.16;36.15;99350.88;5009475;28;20382;-60
2022/05/20 08:07:10;;;;;;;;;;;;;;;10.29;33.01;99325.16;5033990;28;19991;-62
2022/05/20 08:09:36;;;;;;;;;;;;;;;10.29;31.83;99338.41;5033041;28;20059;-63
2022/05/20 08:12:02;;;;;;;;;;;;;;;10.26;31.38;99333.56;5032983;28;20027;-62
2022/05/20 08:14:28;;;;;;;;;;;;;;;10.33;32.03;99328.97;5046613;28;19929;-61
2022/05/20 08:16:57;;;;;;;;;;;;;;;10.26;31.85;99337.00;5052342;28;20352;-63
2022/05/20 08:19:23;;;;;;;;;;;;;;;10.20;32.71;99335.31;5051236;28;19943;-62
2022/05/20 08:21:49;;;;;;;;;;;;;;;10.30;32.58;99324.16;5052172;28;19924;-62
2022/05/20 08:24:14;;;;;;;;;;;;;;;10.39;32.54;99328.03;5054329;28;19929;-61
2022/05/20 08:26:40;;;;;;;;;;;;;;;10.47;32.25;99330.28;5052199;28;19925;-63
2022/05/20 08:29:06;;;;;;;;;;;;;;;10.53;32.60;99333.81;5052412;28;20362;-62
2022/05/20 08:31:33;;;;;;;;;;;;;;;10.60;32.28;99331.84;5034879;28;20408;-61
2022/05/20 08:33:59;;;;;;;;;;;;;;;10.46;32.89;99326.00;5052683;28;20309;-61
2022/05/20 08:36:26;;;;;;;;;;;;;;;10.41;32.42;99325.91;5053012;28;19928;-61
2022/05/20 08:38:51;;;;;;;;;;;;;;;10.30;32.50;99321.50;5051405;28;19928;-62
2022/05/20 08:41:23;;;;;;;;;;;;;;;10.39;31.80;99325.38;5053621;28;19985;-63
2022/05/20 08:43:48;;;;;;;;;;;;;;;10.40;32.82;99324.31;5053846;28;19929;-60
2022/05/20 08:46:14;;;;;;;;;;;;;;;10.46;32.59;99328.66;5051537;28;20034;-61
2022/05/20 08:48:40;;;;;;;;;;;;;;;10.42;31.55;99327.53;5054214;28;19935;-62
2022/05/20 08:51:06;;;;;;;;;;;;;;;10.46;31.25;99323.38;5052357;28;19925;-62
2022/05/20 08:53:38;;;;;;;;;;;;;;;10.43;32.64;99321.19;5053622;28;19978;-63
2022/05/20 08:56:05;;;;;;;;;;;;;;;10.46;31.85;99315.41;5018358;28;20421;-63
2022/05/20 08:58:30;;;;;;;;;;;;;;;10.43;32.36;99306.09;5052622;28;19929;-62
2022/05/20 09:00:56;;;;;;;;;;;;;;;10.46;32.19;99305.59;5054415;28;19932;-63
2022/05/20 09:03:22;;;;;;;;;;;;;;;10.52;33.42;99317.09;5053218;28;20027;-63
2022/05/20 09:05:47;;;;;;;;;;;;;;;10.63;32.21;99320.75;5050947;28;20037;-63
2022/05/20 09:08:21;;;;;;;;;;;;;;;10.63;31.97;99310.94;5050331;28;20460;-63
2022/05/20 09:10:54;;;;;;;;;;;;;;;10.52;31.09;99332.22;5052268;28;20257;-63
2022/05/20 09:13:21;;;;;;;;;;;;;;;10.48;30.69;99304.59;5052690;28;19966;-62
2022/05/20 09:15:58;;;;;;;;;;;;;;;10.41;30.89;99304.72;5017808;28;20023;-62
2022/05/20 09:18:34;;;;;;;;;;;;;;;10.41;32.10;99292.28;5051202;28;19938;-62
2022/05/20 09:21:00;;;;;;;;;;;;;;;10.52;32.04;99300.41;5051934;28;19975;-62
2022/05/20 09:23:26;;;;;;;;;;;;;;;10.55;32.02;99287.47;5052517;28;19952;-62
2022/05/20 09:26:11;;;;;;;;;;;;;;;10.67;30.04;99296.16;5052525;28;19924;-63
2022/05/20 09:29:06;;;;;;;;;;;;;;;10.62;30.94;99293.44;5050423;28;19935;-63
2022/05/20 09:31:45;;;;;;;;;;;;;;;10.51;31.21;99296.16;5050020;28;20318;-63
2022/05/20 09:34:35;;;;;;;;;;;;;;;10.52;31.71;99285.31;5051252;28;20337;-63
2022/05/20 09:37:17;;;;;;;;;;;;;;;10.52;30.98;99287.97;5047690;28;20023;-63
2022/05/20 09:39:43;;;;;;;;;;;;;;;10.54;31.12;99291.19;5050380;28;20314;-63
2022/05/20 09:42:13;;;;;;;;;;;;;;;10.57;31.91;99287.25;5049651;28;19931;-62
2022/05/20 09:44:40;;;;;;;;;;;;;;;10.65;32.31;99295.63;5053139;28;19983;-62
2022/05/20 09:47:08;;;;;;;;;;;;;;;10.67;31.01;99293.50;5051231;28;19977;-63
2022/05/20 09:49:34;;;;;;;;;;;;;;;10.62;30.38;99290.00;5050689;28;19929;-63
2022/05/20 09:52:00;;;;;;;;;;;;;;;10.75;30.64;99286.22;5052339;28;19947;-63
2022/05/20 09:54:38;;;;;;;;;;;;;;;10.70;29.61;99297.53;5051975;28;20023;-62
2022/05/20 09:57:06;;;;;;;;;;;;;;;10.76;29.87;99283.31;5034782;28;19987;-63
2022/05/20 09:59:49;;;;;;;;;;;;;;;10.85;30.39;99294.31;5052442;28;19932;-64
2022/05/20 10:02:33;;;;;;;;;;;;;;;10.97;29.96;99295.06;5051494;28;19979;-65
2022/05/20 10:05:05;;;;;;;;;;;;;;;10.84;30.68;99296.16;5050063;28;20389;-65
2022/05/20 10:07:33;;;;;;;;;;;;;;;10.76;31.05;99290.47;5048273;28;20035;-62
2022/05/20 10:10:07;;;;;;;;;;;;;;;10.75;30.63;99276.41;5049950;28;19928;-61
2022/05/20 10:12:33;;;;;;;;;;;;;;;10.81;31.45;99277.28;5049882;28;19924;-62
2022/05/20 10:15:06;;;;;;;;;;;;;;;10.77;31.58;99270.88;5040279;28;19928;-63
2022/05/20 10:17:35;;;;;;;;;;;;;;;10.85;31.93;99267.81;5051802;28;19958;-62
2022/05/20 10:20:14;;;;;;;;;;;;;;;10.84;30.71;99274.16;5054902;28;19990;-64
2022/05/20 10:22:59;;;;;;;;;;;;;;;10.88;30.46;99280.56;5051214;28;19967;-63
2022/05/20 10:25:35;;;;;;;;;;;;;;;10.81;30.75;99283.41;5048745;28;19933;-62
2022/05/20 10:28:08;;;;;;;;;;;;;;;10.87;30.04;99273.69;5042646;28;19929;-62
2022/05/20 10:33:32;;;;;;;;;;;;;;;11.02;29.30;99262.50;5029429;28;19929;-63
2022/05/20 10:36:34;;;;;;;;;;;;;;;11.09;31.86;99266.59;5047384;28;19917;-62
2022/05/20 10:39:09;;;;;;;;;;;;;;;11.07;31.01;99271.34;4993318;28;19936;-62
2022/05/20 10:41:34;;;;;;;;;;;;;;;11.08;30.94;99275.56;5049414;28;20015;-62
2022/05/20 10:49:43;;;;;;;;;;;;;;;11.28;30.08;99259.16;5052256;28;19928;-62
2022/05/20 10:52:13;;;;;;;;;;;;;;;11.27;31.08;99272.69;5051871;28;19978;-63
2022/05/20 10:54:38;;;;;;;;;;;;;;;11.29;29.70;99252.00;5039953;28;19929;-63
2022/05/20 10:57:23;;;;;;;;;;;;;;;11.33;27.61;99245.16;5049910;28;20078;-62
2022/05/20 10:59:49;;;;;;;;;;;;;;;11.35;29.88;99245.69;5050509;28;20409;-62
2022/05/20 11:02:14;;;;;;;;;;;;;;;11.32;29.09;99247.03;5050777;28;19929;-61
2022/05/20 11:04:46;;;;;;;;;;;;;;;11.28;29.32;99239.78;5051203;28;20031;-62
2022/05/20 11:07:20;;;;;;;;;;;;;;;11.28;30.83;99258.34;5048159;28;20023;-62
2022/05/20 11:09:54;;;;;;;;;;;;;;;11.36;30.64;99240.16;5050659;28;19954;-62
2022/05/20 11:12:26;;;;;;;;;;;;;;;11.35;30.55;99232.44;5044969;28;19947;-62
2022/05/20 11:14:51;;;;;;;;;;;;;;;11.35;28.99;99233.25;5031859;28;19936;-61
2022/05/20 11:17:29;;;;;;;;;;;;;;;11.40;28.15;99237.81;5048841;28;19924;-62
2022/05/20 11:19:57;;;;;;;;;;;;;;;11.36;27.97;99242.00;5047825;28;20445;-61
2022/05/20 11:22:23;;;;;;;;;;;;;;;11.30;28.90;99229.72;5049837;28;20274;-61
2022/05/20 11:24:48;;;;;;;;;;;;;;;11.33;28.81;99230.03;5049413;28;19959;-63
2022/05/20 11:27:17;;;;;;;;;;;;;;;11.40;28.82;99224.53;5048037;28;20032;-62
2022/05/20 11:29:42;;;;;;;;;;;;;;;11.52;29.91;99227.88;5048628;28;20321;-63
2022/05/20 11:32:10;;;;;;;;;;;;;;;11.66;29.33;99225.66;5048309;28;19932;-61
2022/05/20 11:34:46;;;;;;;;;;;;;;;11.71;30.06;99222.25;5048349;28;20302;-62
2022/05/20 11:37:14;;;;;;;;;;;;;;;11.64;30.19;99211.81;5048719;28;20011;-62
2022/05/20 11:39:53;;;;;;;;;;;;;;;11.65;28.80;99216.09;5050120;28;19928;-63
2022/05/20 11:42:21;;;;;;;;;;;;;;;11.64;28.95;99216.31;5030891;28;19967;-61
2022/05/20 11:45:09;;;;;;;;;;;;;;;11.63;28.26;99210.22;5048368;28;20006;-62
2022/05/20 11:47:50;;;;;;;;;;;;;;;11.66;28.46;99203.63;5049178;28;19929;-62
2022/05/20 11:50:22;;;;;;;;;;;;;;;11.81;28.85;99201.13;5050132;28;19932;-62
2022/05/20 11:52:48;;;;;;;;;;;;;;;11.95;28.33;99193.59;5048065;28;20301;-63
2022/05/20 11:55:28;;;;;;;;;;;;;;;12.00;28.60;99199.75;5046268;28;20112;-63
2022/05/20 11:58:00;;;;;;;;;;;;;;;12.09;28.90;99196.63;5048158;28;19931;-61
2022/05/20 12:00:26;;;;;;;;;;;;;;;12.04;28.88;99195.53;5046982;28;20461;-62
2022/05/20 12:02:54;;;;;;;;;;;;;;;11.92;29.33;99189.59;5046949;28;20043;-61
2022/05/20 12:05:24;;;;;;;;;;;;;;;11.90;29.81;99204.16;5049145;28;19933;-62
2022/05/20 12:07:50;;;;;;;;;;;;;;;11.80;30.23;99200.31;5049455;28;19925;-61
2022/05/20 12:10:35;;;;;;;;;;;;;;;11.63;30.15;99190.84;5048474;28;19939;-63
2022/05/20 12:13:04;;;;;;;;;;;;;;;11.59;29.93;99185.22;5047880;28;19925;-61
2022/05/20 12:15:38;;;;;;;;;;;;;;;11.67;29.55;99178.66;5049569;28;20393;-62
2022/05/20 12:24:11;;;;;;;;;;;;;;;11.65;29.85;99176.28;5048396;28;19925;-62
2022/05/20 12:24:24;;;;;;;;;;;;;;;11.41;29.22;99173.06;5032662;28;20027;-60
2022/05/20 12:26:51;;;;;;;;;;;;;;;11.32;28.93;99163.94;5046616;28;19925;-62
2022/05/20 12:29:39;;;;;;;;;;;;;;;11.41;28.87;99165.09;5047745;28;20015;-62
2022/05/20 12:32:23;;;;;;;;;;;;;;;11.52;28.46;99168.69;5047546;28;20015;-62
2022/05/20 12:35:07;;;;;;;;;;;;;;;11.62;29.08;99173.28;5048851;28;19940;-62
2022/05/20 12:37:39;;;;;;;;;;;;;;;11.71;29.65;99163.84;5047898;28;20313;-61
2022/05/20 12:40:05;;;;;;;;;;;;;;;11.73;29.69;99161.72;5047006;28;20384;-61
2022/05/20 12:42:40;;;;;;;;;;;;;;;11.72;29.73;99163.59;5052888;28;19924;-61
2022/05/20 12:45:06;;;;;;;;;;;;;;;11.82;29.94;99160.22;5031350;28;19929;-62
2022/05/20 12:47:32;;;;;;;;;;;;;;;11.87;29.49;99162.16;5051990;28;19925;-61
2022/05/20 12:50:02;;;;;;;;;;;;;;;11.94;28.99;99152.13;5052622;28;19951;-62
2022/05/20 12:52:44;;;;;;;;;;;;;;;12.04;28.85;99144.25;5052600;28;19925;-62
2022/05/20 12:55:11;;;;;;;;;;;;;;;12.15;28.97;99139.84;5052375;28;20293;-62
2022/05/20 12:57:42;;;;;;;;;;;;;;;12.17;29.21;99138.50;5034555;28;20028;-61
2022/05/20 13:00:12;;;;;;;;;;;;;;;12.12;29.20;99135.00;5050681;28;19967;-62
2022/05/20 13:02:42;;;;;;;;;;;;;;;12.22;29.35;99135.13;5050911;28;19959;-62
2022/05/20 13:05:16;;;;;;;;;;;;;;;12.32;29.15;99137.03;5050874;28;19936;-61
2022/05/20 13:07:42;;;;;;;;;;;;;;;12.41;28.00;99132.84;5052219;28;19932;-61
2022/05/20 13:10:28;;;;;;;;;;;;;;;12.38;27.92;99134.19;5050923;28;19929;-62
2022/05/20 13:12:54;;;;;;;;;;;;;;;12.32;28.88;99137.84;5051779;28;19931;-62
2022/05/20 13:15:20;;;;;;;;;;;;;;;12.32;27.98;99129.84;5050491;28;20357;-62
2022/05/20 13:17:59;;;;;;;;;;;;;;;12.35;27.92;99123.22;5050289;28;20011;-62
2022/05/20 13:20:25;;;;;;;;;;;;;;;12.32;27.44;99127.19;5034052;28;20006;-62
2022/05/20 13:22:51;;;;;;;;;;;;;;;12.36;27.89;99120.34;5055929;28;20400;-61
2022/05/20 13:25:17;;;;;;;;;;;;;;;12.40;27.70;99120.63;5070790;28;19929;-61
2022/05/20 13:27:46;;;;;;;;;;;;;;;12.36;27.57;99117.69;5059964;28;20030;-62
2022/05/20 13:30:13;;;;;;;;;;;;;;;12.41;28.01;99123.03;5049675;28;19955;-60
2022/05/20 13:32:39;;;;;;;;;;;;;;;12.49;26.95;99113.75;5050691;28;19925;-61